createdAt,value
2018-09-06T00:01:02.254Z,32.07
2018-09-06T00:03:30.653Z,30.90
2018-09-06T00:05:59.066Z,29.43
2018-09-06T00:08:27.577Z,29.93
2018-09-06T00:10:55.987Z,29.70
2018-09-06T00:13:24.441Z,31.70
2018-09-06T00:15:52.908Z,32.13
2018-09-06T00:18:21.304Z,31.13
2018-09-06T00:20:49.718Z,35.47
2018-09-06T00:23:18.125Z,32.63
2018-09-06T00:25:46.553Z,35.07
2018-09-06T00:28:14.936Z,31.33
2018-09-06T00:30:43.380Z,32.03
2018-09-06T00:33:11.767Z,33.67
2018-09-06T00:35:40.406Z,35.03
2018-09-06T00:38:08.821Z,34.03
2018-09-06T00:40:37.273Z,33.57
2018-09-06T00:43:05.726Z,33.17
2018-09-06T00:45:34.391Z,34.80
2018-09-06T00:48:02.826Z,35.23
2018-09-06T00:50:37.904Z,34.37
2018-09-06T00:53:06.610Z,32.67
2018-09-06T00:55:35.683Z,32.90
2018-09-06T00:58:04.121Z,35.10
2018-09-06T01:00:32.517Z,33.00
2018-09-06T01:03:00.927Z,32.50
2018-09-06T01:05:29.616Z,33.53
2018-09-06T01:07:58.000Z,34.83
2018-09-06T01:10:26.496Z,33.73
2018-09-06T01:12:54.920Z,32.93
2018-09-06T01:15:24.419Z,32.70
2018-09-06T01:17:52.839Z,37.10
2018-09-06T01:20:21.336Z,35.37
2018-09-06T01:22:49.764Z,34.53
2018-09-06T01:25:18.153Z,33.07
2018-09-06T01:27:46.572Z,35.73
2018-09-06T01:30:14.952Z,34.90
2018-09-06T01:32:43.496Z,35.57
2018-09-06T01:35:11.893Z,35.73
2018-09-06T01:37:40.364Z,35.07
2018-09-06T01:40:08.769Z,36.43
2018-09-06T01:42:37.192Z,35.13
2018-09-06T01:45:05.982Z,35.63
2018-09-06T01:47:34.386Z,34.33
2018-09-06T01:50:02.868Z,36.83
2018-09-06T01:52:31.271Z,34.53
2018-09-06T01:54:59.721Z,35.63
2018-09-06T01:57:28.166Z,34.87
2018-09-06T01:59:56.629Z,38.33
2018-09-06T02:02:25.093Z,36.60
2018-09-06T02:04:53.464Z,39.10
2018-09-06T02:07:21.884Z,36.47
2018-09-06T02:09:50.532Z,38.30
2018-09-06T02:12:18.935Z,39.27
2018-09-06T02:14:47.317Z,37.17
2018-09-06T02:17:15.832Z,38.23
2018-09-06T02:19:44.313Z,40.23
2018-09-06T02:22:12.725Z,39.43
2018-09-06T02:24:41.127Z,42.70
2018-09-06T02:27:09.533Z,39.70
2018-09-06T02:29:37.968Z,41.87
2018-09-06T02:32:06.412Z,41.03
2018-09-06T02:34:34.792Z,43.73
2018-09-06T02:37:03.199Z,40.70
2018-09-06T02:39:31.639Z,41.03
2018-09-06T02:42:00.047Z,40.13
2018-09-06T02:44:28.464Z,40.50
2018-09-06T02:46:56.867Z,43.83
2018-09-06T02:49:30.680Z,43.43
2018-09-06T02:51:59.076Z,43.10
2018-09-06T02:54:27.508Z,45.53
2018-09-06T02:56:56.005Z,46.50
2018-09-06T02:59:25.163Z,45.03
2018-09-06T03:01:53.572Z,44.30
2018-09-06T03:04:21.985Z,46.37
2018-09-06T03:06:50.383Z,46.40
2018-09-06T03:09:21.212Z,44.07
2018-09-06T03:11:51.320Z,43.70
2018-09-06T03:14:19.788Z,43.67
2018-09-06T03:16:48.228Z,47.37
2018-09-06T03:19:16.672Z,44.67
2018-09-06T03:21:45.112Z,42.13
2018-09-06T03:24:13.585Z,48.30
2018-09-06T03:26:41.989Z,43.77
2018-09-06T03:29:10.430Z,44.67
2018-09-06T03:31:38.807Z,48.43
2018-09-06T03:34:07.207Z,49.97
2018-09-06T03:36:35.621Z,51.50
2018-09-06T03:39:05.585Z,50.03
2018-09-06T03:41:34.055Z,49.50
2018-09-06T03:44:02.877Z,45.47
2018-09-06T03:46:31.552Z,47.20
2018-09-06T03:48:59.946Z,41.03
2018-09-06T03:51:28.341Z,44.37
2018-09-06T03:53:56.768Z,42.50
2018-09-06T03:56:25.148Z,45.90
2018-09-06T03:58:53.556Z,42.50
2018-09-06T04:01:21.948Z,43.80
2018-09-06T04:03:50.341Z,41.67
2018-09-06T04:06:18.743Z,40.47
2018-09-06T04:08:47.125Z,42.07
2018-09-06T04:11:15.541Z,43.97
2018-09-06T04:13:44.052Z,43.50
2018-09-06T04:16:12.447Z,41.50
2018-09-06T04:18:40.840Z,45.67
2018-09-06T04:21:09.250Z,45.73
2018-09-06T04:23:37.805Z,46.30
2018-09-06T04:26:06.280Z,44.93
2018-09-06T04:28:35.077Z,46.23
2018-09-06T04:31:03.482Z,44.37
2018-09-06T04:33:31.866Z,46.73
2018-09-06T04:36:00.275Z,49.03
2018-09-06T04:38:29.397Z,45.80
2018-09-06T04:40:57.803Z,46.40
2018-09-06T04:43:26.187Z,44.20
2018-09-06T04:45:54.618Z,47.67
2018-09-06T04:48:23.031Z,47.53
2018-09-06T04:50:51.425Z,45.50
2018-09-06T04:53:19.819Z,41.33
2018-09-06T04:55:48.227Z,40.20
2018-09-06T04:58:16.849Z,36.53
2018-09-06T05:00:45.316Z,33.87
2018-09-06T05:03:13.817Z,35.23
2018-09-06T05:05:42.502Z,30.67
2018-09-06T05:08:10.924Z,31.57
2018-09-06T05:10:39.352Z,27.83
2018-09-06T05:13:07.741Z,25.17
2018-09-06T05:15:36.187Z,20.83
2018-09-06T05:18:05.032Z,22.97
2018-09-06T05:20:33.477Z,22.17
2018-09-06T05:23:02.468Z,23.57
2018-09-06T05:25:30.861Z,20.97
2018-09-06T05:27:59.252Z,22.60
2018-09-06T05:30:27.645Z,25.50
2018-09-06T05:32:56.056Z,21.10
2018-09-06T05:35:24.453Z,18.80
2018-09-06T05:37:52.892Z,22.10
2018-09-06T05:40:21.313Z,23.07
2018-09-06T05:42:49.958Z,23.20
2018-09-06T05:45:18.384Z,24.53
2018-09-06T05:47:51.020Z,22.83
2018-09-06T05:50:19.430Z,24.43
2018-09-06T05:52:48.107Z,28.20
2018-09-06T05:55:16.568Z,27.37
2018-09-06T05:57:44.989Z,25.90
2018-09-06T06:00:18.928Z,29.17
2018-09-06T06:02:47.721Z,36.23
2018-09-06T06:05:16.179Z,31.57
2018-09-06T06:07:55.884Z,32.67
2018-09-06T06:10:24.282Z,40.80
2018-09-06T06:12:52.974Z,37.87
2018-09-06T06:15:21.460Z,43.47
2018-09-06T06:17:49.887Z,49.00
2018-09-06T06:20:18.313Z,37.10
2018-09-06T06:22:46.724Z,33.80
2018-09-06T06:25:15.176Z,37.93
2018-09-06T06:27:43.751Z,32.13
2018-09-06T06:30:12.172Z,34.83
2018-09-06T06:32:40.636Z,34.77
2018-09-06T06:35:09.053Z,40.17
2018-09-06T06:37:37.465Z,37.40
2018-09-06T06:40:05.896Z,40.40
2018-09-06T06:42:34.322Z,33.23
2018-09-06T06:45:02.817Z,35.10
2018-09-06T06:47:31.340Z,34.93
2018-09-06T06:49:59.777Z,33.43
2018-09-06T06:52:28.173Z,37.17
2018-09-06T06:54:57.800Z,36.30
2018-09-06T06:57:28.458Z,35.47
2018-09-06T06:59:56.920Z,40.47
2018-09-06T07:02:25.363Z,38.03
2018-09-06T07:04:54.245Z,37.00
2018-09-06T07:07:22.737Z,39.03
2018-09-06T07:09:51.368Z,41.40
2018-09-06T07:12:19.769Z,42.40
2018-09-06T07:14:48.190Z,39.30
2018-09-06T07:17:19.575Z,40.50
2018-09-06T07:19:49.550Z,43.27
2018-09-06T07:22:18.021Z,39.40
2018-09-06T07:24:46.524Z,39.60
2018-09-06T07:27:14.935Z,41.30
2018-09-06T07:29:43.348Z,39.77
2018-09-06T07:32:12.056Z,41.60
2018-09-06T07:34:40.494Z,45.57
2018-09-06T07:37:09.061Z,43.17
2018-09-06T07:39:37.852Z,38.17
2018-09-06T07:42:09.898Z,36.13
2018-09-06T07:44:40.776Z,35.03
2018-09-06T07:47:13.314Z,41.23
2018-09-06T07:49:44.372Z,36.40
2018-09-06T07:52:12.872Z,37.17
2018-09-06T07:54:41.273Z,35.60
2018-09-06T07:57:09.748Z,36.10
2018-09-06T07:59:38.160Z,37.30
2018-09-06T08:02:06.621Z,33.90
2018-09-06T08:04:35.083Z,31.80
2018-09-06T08:07:03.477Z,31.50
2018-09-06T08:09:31.880Z,34.27
2018-09-06T08:12:00.374Z,33.53
2018-09-06T08:14:28.740Z,34.10
2018-09-06T08:16:57.203Z,37.17
2018-09-06T08:19:25.794Z,34.97
2018-09-06T08:21:54.455Z,34.40
2018-09-06T08:24:23.036Z,34.27
2018-09-06T08:26:51.647Z,37.43
2018-09-06T08:29:20.056Z,34.30
2018-09-06T08:31:48.485Z,35.43
2018-09-06T08:34:17.067Z,39.37
2018-09-06T08:36:45.567Z,42.10
2018-09-06T08:39:13.965Z,40.13
2018-09-06T08:41:42.364Z,38.47
2018-09-06T08:44:10.782Z,39.70
2018-09-06T08:46:39.185Z,40.90
2018-09-06T08:49:07.605Z,39.03
2018-09-06T08:51:36.028Z,39.53
2018-09-06T08:54:04.437Z,37.40
2018-09-06T08:56:32.829Z,38.50
2018-09-06T08:59:01.253Z,36.40
2018-09-06T09:01:34.934Z,34.77
2018-09-06T09:04:03.373Z,36.37
2018-09-06T09:06:31.859Z,34.40
2018-09-06T09:09:00.281Z,29.30
2018-09-06T09:11:28.763Z,26.53
2018-09-06T09:13:57.313Z,29.37
2018-09-06T09:16:25.795Z,27.10
2018-09-06T09:18:54.209Z,24.47
2018-09-06T09:21:22.772Z,25.73
2018-09-06T09:23:51.189Z,21.80
2018-09-06T09:26:19.564Z,21.17
2018-09-06T09:28:48.036Z,22.10
2018-09-06T09:31:16.506Z,24.97
2018-09-06T09:33:45.613Z,20.93
2018-09-06T09:36:14.046Z,20.87
2018-09-06T09:38:42.472Z,19.63
2018-09-06T09:41:11.159Z,18.53
2018-09-06T09:43:39.582Z,17.77
2018-09-06T09:48:35.635Z,16.97
2018-09-06T09:51:04.058Z,15.37
2018-09-06T09:53:32.547Z,17.43
2018-09-06T09:56:00.934Z,17.50
2018-09-06T09:58:29.589Z,19.27
2018-09-06T10:00:57.974Z,18.63
2018-09-06T10:03:31.714Z,19.10
2018-09-06T10:06:05.628Z,18.93
2018-09-06T10:08:39.209Z,20.70
2018-09-06T10:11:07.586Z,21.43
2018-09-06T10:13:36.048Z,21.73
2018-09-06T10:16:04.544Z,21.03
2018-09-06T10:18:33.076Z,20.67
2018-09-06T10:21:01.512Z,21.43
2018-09-06T10:23:29.952Z,21.20
2018-09-06T10:25:58.398Z,19.30
2018-09-06T10:28:26.904Z,20.93
2018-09-06T10:30:55.394Z,20.83
2018-09-06T10:33:23.972Z,19.07
2018-09-06T10:35:52.418Z,21.30
2018-09-06T10:38:20.923Z,22.47
2018-09-06T10:40:49.325Z,24.83
2018-09-06T10:43:17.736Z,24.07
2018-09-06T10:45:46.172Z,26.93
2018-09-06T10:48:14.605Z,26.73
2018-09-06T10:50:43.073Z,29.57
2018-09-06T10:53:11.636Z,27.03
2018-09-06T10:55:40.104Z,28.30
2018-09-06T10:58:08.510Z,28.27
2018-09-06T11:00:36.966Z,26.67
2018-09-06T11:03:05.462Z,28.53
2018-09-06T11:05:34.012Z,27.07
2018-09-06T11:08:02.601Z,27.17
2018-09-06T11:10:31.072Z,30.47
2018-09-06T11:12:59.461Z,31.70
2018-09-06T11:15:27.957Z,34.27
2018-09-06T11:17:56.363Z,34.57
2018-09-06T11:20:24.755Z,33.17
2018-09-06T11:22:53.132Z,30.43
2018-09-06T11:25:21.632Z,34.53
2018-09-06T11:27:50.551Z,35.13
2018-09-06T11:30:18.992Z,33.87
2018-09-06T11:32:47.452Z,34.07
2018-09-06T11:35:16.009Z,32.97
2018-09-06T11:37:44.464Z,34.03
2018-09-06T11:40:12.998Z,37.83
2018-09-06T11:42:41.340Z,36.57
2018-09-06T11:45:09.763Z,36.70
2018-09-06T11:47:38.240Z,39.80
2018-09-06T11:50:06.671Z,39.57
2018-09-06T11:52:35.168Z,39.57
2018-09-06T11:55:03.729Z,38.70
2018-09-06T11:57:32.275Z,38.90
2018-09-06T12:00:00.724Z,35.23
2018-09-06T12:02:29.599Z,34.67
2018-09-06T12:04:58.076Z,36.30
2018-09-06T12:07:26.527Z,31.67
2018-09-06T12:09:55.117Z,32.63
2018-09-06T12:12:23.612Z,32.37
2018-09-06T12:14:52.169Z,33.10
2018-09-06T12:17:20.652Z,27.57
2018-09-06T12:19:49.291Z,26.07
2018-09-06T12:22:17.856Z,27.47
2018-09-06T12:24:46.519Z,28.80
2018-09-06T12:27:14.932Z,26.17
2018-09-06T12:29:43.616Z,26.27
2018-09-06T12:32:12.080Z,27.63
2018-09-06T12:34:40.509Z,26.73
2018-09-06T12:37:13.984Z,28.17
2018-09-06T12:39:44.205Z,26.30
2018-09-06T12:42:12.867Z,26.07
2018-09-06T12:44:41.994Z,25.77
2018-09-06T12:47:10.590Z,25.60
2018-09-06T12:49:39.441Z,25.77
2018-09-06T12:52:07.841Z,24.73
2018-09-06T12:54:36.547Z,24.40
2018-09-06T12:57:05.080Z,26.43
2018-09-06T12:59:33.535Z,25.07
2018-09-06T13:02:02.360Z,28.10
2018-09-06T13:04:30.770Z,26.73
2018-09-06T13:06:59.186Z,31.37
2018-09-06T13:09:27.596Z,30.70
2018-09-06T13:11:56.013Z,30.97
2018-09-06T13:14:24.688Z,32.57
2018-09-06T13:16:53.166Z,30.77
2018-09-06T13:19:21.620Z,30.77
2018-09-06T13:21:50.032Z,30.43
2018-09-06T13:24:18.710Z,31.53
2018-09-06T13:26:47.594Z,29.53
2018-09-06T13:29:16.144Z,33.00
2018-09-06T13:31:44.600Z,31.00
2018-09-06T13:34:13.032Z,31.87
2018-09-06T13:36:41.462Z,30.07
2018-09-06T13:39:10.731Z,30.47
2018-09-06T13:41:39.149Z,30.60
2018-09-06T13:44:07.572Z,30.90
2018-09-06T13:46:36.200Z,33.53
2018-09-06T13:49:04.636Z,28.77
2018-09-06T13:51:33.086Z,32.47
2018-09-06T13:54:01.524Z,31.27
2018-09-06T13:56:29.952Z,36.40
2018-09-06T13:58:58.548Z,33.93
2018-09-06T14:01:26.971Z,31.63
2018-09-06T14:03:55.415Z,33.67
2018-09-06T14:06:23.888Z,35.53
2018-09-06T14:08:52.320Z,33.53
2018-09-06T14:11:20.743Z,35.10
2018-09-06T14:13:49.175Z,32.57
2018-09-06T14:16:17.650Z,33.47
2018-09-06T14:18:46.059Z,34.43
2018-09-06T14:21:14.499Z,34.57
2018-09-06T14:23:43.007Z,35.67
2018-09-06T14:26:11.549Z,30.60
2018-09-06T14:28:40.705Z,32.07
2018-09-06T14:31:09.216Z,32.13
2018-09-06T14:33:37.649Z,29.53
2018-09-06T14:36:06.194Z,29.50
2018-09-06T14:38:34.677Z,29.17
2018-09-06T14:41:03.260Z,32.93
2018-09-06T14:43:31.841Z,29.87
2018-09-06T14:46:00.320Z,29.33
2018-09-06T14:48:28.941Z,32.67
2018-09-06T14:50:57.397Z,29.97
2018-09-06T14:53:25.790Z,30.97
2018-09-06T14:55:54.247Z,31.70
2018-09-06T14:58:22.843Z,35.87
2018-09-06T15:00:51.283Z,35.73
2018-09-06T15:03:19.735Z,34.00
2018-09-06T15:05:48.204Z,32.80
2018-09-06T15:08:16.725Z,35.97
2018-09-06T15:10:45.145Z,32.13
2018-09-06T15:13:13.660Z,32.63
2018-09-06T15:15:42.130Z,31.83
2018-09-06T15:18:10.620Z,32.53
2018-09-06T15:20:39.288Z,30.90
2018-09-06T15:23:07.774Z,34.30
2018-09-06T15:25:36.281Z,33.77
2018-09-06T15:28:04.926Z,35.23
2018-09-06T15:30:33.383Z,33.20
2018-09-06T15:33:01.951Z,32.20
2018-09-06T15:35:30.529Z,31.63
2018-09-06T15:37:59.030Z,36.43
2018-09-06T15:40:27.598Z,37.53
2018-09-06T15:42:56.146Z,44.67
2018-09-06T15:45:24.578Z,38.80
2018-09-06T15:47:53.312Z,38.27
2018-09-06T15:50:21.860Z,38.60
2018-09-06T15:52:50.276Z,35.67
2018-09-06T15:55:18.794Z,37.20
2018-09-06T15:57:47.328Z,38.13
2018-09-06T16:00:16.299Z,38.23
2018-09-06T16:02:46.063Z,42.60
2018-09-06T16:05:15.126Z,37.67
2018-09-06T16:07:44.855Z,38.63
2018-09-06T16:10:13.344Z,38.90
2018-09-06T16:12:41.791Z,38.13
2018-09-06T16:15:10.398Z,37.60
2018-09-06T16:17:38.924Z,37.03
2018-09-06T16:20:07.659Z,38.83
2018-09-06T16:22:36.123Z,38.43
2018-09-06T16:25:04.620Z,35.80
2018-09-06T16:27:33.098Z,37.20
2018-09-06T16:30:01.724Z,35.47
2018-09-06T16:32:30.256Z,37.20
2018-09-06T16:34:58.733Z,35.73
2018-09-06T16:37:27.160Z,35.40
2018-09-06T16:39:56.633Z,32.20
2018-09-06T16:42:25.510Z,32.73
2018-09-06T16:44:53.929Z,31.70
2018-09-06T16:47:22.354Z,33.50
2018-09-06T16:49:50.784Z,33.47
2018-09-06T16:52:19.439Z,33.77
2018-09-06T16:54:47.879Z,34.07
2018-09-06T16:57:16.380Z,32.07
2018-09-06T16:59:44.869Z,35.03
2018-09-06T17:02:13.340Z,32.10
2018-09-06T17:04:41.870Z,32.03
2018-09-06T17:07:10.303Z,32.73
2018-09-06T17:09:38.741Z,32.73
2018-09-06T17:12:07.186Z,34.73
2018-09-06T17:14:35.731Z,35.80
2018-09-06T17:17:04.195Z,32.30
2018-09-06T17:19:32.728Z,30.60
2018-09-06T17:22:01.221Z,30.07
2018-09-06T17:24:29.660Z,30.73
2018-09-06T17:26:58.236Z,32.40
2018-09-06T17:29:26.680Z,29.57
2018-09-06T17:31:55.249Z,28.67
2018-09-06T17:34:23.658Z,28.87
2018-09-06T17:36:52.124Z,29.67
2018-09-06T17:39:20.630Z,29.20
2018-09-06T17:41:49.047Z,29.80
2018-09-06T17:44:17.508Z,30.63
2018-09-06T17:46:45.936Z,32.20
2018-09-06T17:49:14.360Z,31.57
2018-09-06T17:51:42.881Z,30.80
2018-09-06T17:54:11.276Z,28.97
2018-09-06T17:56:39.781Z,30.07
2018-09-06T17:59:08.427Z,30.80
2018-09-06T18:01:41.315Z,29.43
2018-09-06T18:04:10.057Z,29.90
2018-09-06T18:06:38.649Z,31.30
2018-09-06T18:09:11.652Z,32.67
2018-09-06T18:11:41.143Z,32.13
2018-09-06T18:14:10.266Z,30.33
2018-09-06T18:16:38.821Z,31.93
2018-09-06T18:19:07.359Z,36.07
2018-09-06T18:21:35.841Z,32.20
2018-09-06T18:24:04.382Z,32.70
2018-09-06T18:26:33.049Z,31.43
2018-09-06T18:29:01.589Z,31.20
2018-09-06T18:31:30.036Z,31.67
2018-09-06T18:33:58.473Z,29.70
2018-09-06T18:36:26.972Z,31.00
2018-09-06T18:38:55.475Z,35.07
2018-09-06T18:41:23.912Z,32.93
2018-09-06T18:43:52.448Z,33.27
2018-09-06T18:46:21.019Z,32.80
2018-09-06T18:48:50.149Z,28.57
2018-09-06T18:51:18.759Z,29.77
2018-09-06T18:53:47.281Z,29.93
2018-09-06T18:56:15.841Z,27.67
2018-09-06T18:58:44.248Z,25.47
2018-09-06T19:01:12.774Z,25.33
2018-09-06T19:03:41.253Z,24.77
2018-09-06T19:06:09.872Z,24.13
2018-09-06T19:08:38.428Z,22.53
2018-09-06T19:11:07.368Z,20.40
2018-09-06T19:13:35.825Z,18.67
2018-09-06T19:16:04.299Z,14.37
2018-09-06T19:18:32.770Z,15.40
2018-09-06T19:21:01.265Z,14.40
2018-09-06T19:23:29.748Z,13.33
2018-09-06T19:25:58.410Z,12.03
2018-09-06T19:28:27.005Z,11.77
2018-09-06T19:30:55.492Z,11.20
2018-09-06T19:33:23.909Z,13.17
2018-09-06T19:35:52.352Z,13.77
2018-09-06T19:38:20.817Z,13.53
2018-09-06T19:40:49.644Z,13.43
2018-09-06T19:43:18.365Z,12.37
2018-09-06T19:45:47.032Z,11.80
2018-09-06T19:48:15.468Z,11.63
2018-09-06T19:50:43.940Z,12.03
2018-09-06T19:53:12.520Z,11.93
2018-09-06T19:55:40.951Z,13.23
2018-09-06T19:58:09.384Z,13.23
2018-09-06T20:00:37.840Z,13.33
2018-09-06T20:03:06.302Z,14.20
2018-09-06T20:05:34.729Z,13.00
2018-09-06T20:08:03.233Z,12.70
2018-09-06T20:10:31.917Z,12.47
2018-09-06T20:13:00.379Z,10.77
2018-09-06T20:15:31.041Z,11.83
2018-09-06T20:17:59.519Z,11.97
2018-09-06T20:20:27.934Z,11.63
2018-09-06T20:22:56.436Z,12.63
2018-09-06T20:25:24.874Z,10.87
2018-09-06T20:27:53.402Z,11.77
2018-09-06T20:30:21.864Z,12.57
2018-09-06T20:32:50.391Z,13.10
2018-09-06T20:35:18.821Z,13.97
2018-09-06T20:37:47.309Z,12.97
2018-09-06T20:40:15.784Z,13.63
2018-09-06T20:42:44.284Z,12.70
2018-09-06T20:45:12.912Z,12.00
2018-09-06T20:47:41.676Z,12.30
2018-09-06T20:50:10.157Z,13.20
2018-09-06T20:52:38.685Z,12.10
2018-09-06T20:55:07.427Z,11.13
2018-09-06T20:57:35.912Z,10.73
2018-09-06T21:00:04.839Z,11.40
2018-09-06T21:02:37.914Z,11.60
2018-09-06T21:05:07.860Z,11.17
2018-09-06T21:07:36.309Z,10.80
2018-09-06T21:10:05.316Z,11.50
2018-09-06T21:12:33.801Z,11.37
2018-09-06T21:15:02.604Z,12.40
2018-09-06T21:17:31.064Z,11.67
2018-09-06T21:19:59.558Z,11.57
2018-09-06T21:22:28.210Z,11.37
2018-09-06T21:24:56.737Z,10.97
2018-09-06T21:27:25.197Z,11.50
2018-09-06T21:29:53.715Z,11.40
2018-09-06T21:32:22.163Z,10.73
2018-09-06T21:34:50.701Z,11.57
2018-09-06T21:37:19.530Z,11.53
2018-09-06T21:39:48.378Z,12.10
2018-09-06T21:42:16.916Z,12.07
2018-09-06T21:44:47.729Z,12.67
2018-09-06T21:47:16.231Z,12.00
2018-09-06T21:49:44.657Z,12.43
2018-09-06T21:52:13.071Z,12.40
2018-09-06T21:54:41.498Z,11.47
2018-09-06T21:57:09.907Z,11.73
2018-09-06T21:59:38.333Z,10.27
2018-09-06T22:02:06.829Z,11.30
2018-09-06T22:04:35.276Z,12.03
2018-09-06T22:07:03.706Z,11.40
2018-09-06T22:09:32.177Z,10.17
2018-09-06T22:12:00.545Z,10.67
2018-09-06T22:14:28.966Z,9.97
2018-09-06T22:16:57.396Z,11.10
2018-09-06T22:19:25.800Z,10.97
2018-09-06T22:21:55.164Z,11.57
2018-09-06T22:24:23.810Z,11.07
2018-09-06T22:26:52.336Z,11.30
2018-09-06T22:29:20.830Z,11.27
2018-09-06T22:31:49.269Z,10.20
2018-09-06T22:34:17.696Z,10.53
2018-09-06T22:36:46.092Z,10.70
2018-09-06T22:39:14.528Z,11.20
2018-09-06T22:41:42.951Z,11.33
2018-09-06T22:44:11.353Z,9.40
2018-09-06T22:46:39.811Z,9.83
2018-09-06T22:49:08.250Z,10.50
2018-09-06T22:51:36.656Z,10.27
2018-09-06T22:54:05.214Z,10.90
2018-09-06T22:56:33.609Z,9.20
2018-09-06T22:59:02.062Z,11.37
2018-09-06T23:01:30.480Z,12.43
2018-09-06T23:03:59.135Z,9.97
2018-09-06T23:06:27.620Z,11.67
2018-09-06T23:08:56.175Z,10.73
2018-09-06T23:11:24.613Z,9.10
2018-09-06T23:13:53.010Z,11.53
2018-09-06T23:16:21.624Z,11.53
2018-09-06T23:18:50.047Z,10.53
2018-09-06T23:21:18.468Z,10.73
2018-09-06T23:23:46.911Z,10.53
2018-09-06T23:26:15.376Z,11.00
2018-09-06T23:28:43.840Z,10.30
2018-09-06T23:31:12.235Z,11.53
2018-09-06T23:33:40.675Z,10.53
2018-09-06T23:36:09.223Z,9.60
2018-09-06T23:38:37.889Z,10.77
2018-09-06T23:41:06.564Z,10.77
2018-09-06T23:43:35.303Z,10.07
2018-09-06T23:46:03.832Z,9.80
2018-09-06T23:48:32.239Z,9.70
2018-09-06T23:51:00.651Z,9.33
2018-09-06T23:53:29.464Z,9.03
2018-09-06T23:55:57.835Z,9.10
2018-09-06T23:58:26.279Z,10.13
